Time;durP1;ratioP1;P1;durP2;ratioP2;P2;SDS_P1;SDS_P2;PMS_P1;PMS_P2;Temp;Humidity;BMP_temperature;BMP_pressure;BME280_temperature;BME280_humidity;BME280_pressure;Samples;Min_cycle;Max_cycle;Signal;HPM_P1;HPM_P2
2021/04/30 00:01:51;;;;;;;25.23;11.23;;;;;;;;;;5028845;28;20044;-80
2021/04/30 00:04:17;;;;;;;;;;;;;;;;;;5032639;28;20060;-80
2021/04/30 00:06:45;;;;;;;18.70;9.00;;;;;;;;;;5013553;28;20415;-79
2021/04/30 00:09:12;;;;;;;16.60;7.45;;;;;;;;;;5030446;28;20013;-81
2021/04/30 00:11:39;;;;;;;16.50;6.38;;;;;;;;;;5012089;28;20537;-81
2021/04/30 00:14:07;;;;;;;20.13;8.23;;;;;;;;;;4999066;28;20052;-81
2021/04/30 00:16:39;;;;;;;20.88;9.27;;;;;;;;;;5026826;28;20032;-81
2021/04/30 00:19:06;;;;;;;15.43;6.70;;;;;;;;;;5029887;28;20099;-81
2021/04/30 00:21:33;;;;;;;16.77;6.63;;;;;;;;;;5024417;28;20325;-81
2021/04/30 00:24:00;;;;;;;15.73;5.60;;;;;;;;;;5028645;28;20020;-81
2021/04/30 00:26:27;;;;;;;16.27;6.60;;;;;;;;;;5027564;28;20583;-82
2021/04/30 00:28:54;;;;;;;14.80;5.88;;;;;;;;;;5028737;28;20036;-81
2021/04/30 00:31:22;;;;;;;13.27;6.13;;;;;;;;;;5033531;28;20033;-80
2021/04/30 00:33:49;;;;;;;13.98;5.60;;;;;;;;;;5024673;28;20037;-80
2021/04/30 00:36:15;;;;;;;13.20;5.30;;;;;;;;;;5028955;28;20025;-80
2021/04/30 00:38:41;;;;;;;;;;;;;;;;;;5021688;28;20021;-81
2021/04/30 00:41:08;;;;;;;20.88;8.20;;;;;;;;;;5027815;28;20023;-80
2021/04/30 00:43:34;;;;;;;17.55;7.35;;;;;;;;;;5023106;28;20021;-81
2021/04/30 00:46:00;;;;;;;;;;;;;;;;;;5029409;28;20073;-81
2021/04/30 00:48:26;;;;;;;17.17;6.43;;;;;;;;;;5010585;28;19916;-83
2021/04/30 00:50:53;;;;;;;;;;;;;;;;;;5015252;28;20115;-82
2021/04/30 00:53:20;;;;;;;14.93;5.40;;;;;;;;;;5028887;28;19909;-81
2021/04/30 00:55:47;;;;;;;16.00;4.93;;;;;;;;;;5004410;28;20148;-81
2021/04/30 00:58:14;;;;;;;13.57;5.63;;;;;;;;;;5007283;28;20056;-82
2021/04/30 01:00:40;;;;;;;13.93;5.20;;;;;;;;;;5007433;28;20036;-81
2021/04/30 01:03:06;;;;;;;;;;;;;;;;;;5013718;28;20031;-81
2021/04/30 01:05:33;;;;;;;15.27;5.53;;;;;;;;;;5027410;28;19913;-84
2021/04/30 01:07:59;;;;;;;;;;;;;;;;;;5008783;28;20159;-78
2021/04/30 01:10:27;;;;;;;14.95;5.63;;;;;;;;;;5026714;28;19913;-78
2021/04/30 01:12:54;;;;;;;12.45;5.40;;;;;;;;;;5006997;28;20078;-78
2021/04/30 01:15:21;;;;;;;14.57;5.40;;;;;;;;;;5008991;28;20143;-79
2021/04/30 01:17:49;;;;;;;14.77;5.35;;;;;;;;;;5016141;28;20095;-79
2021/04/30 01:20:21;;;;;;;14.07;5.88;;;;;;;;;;5009980;28;20033;-80
2021/04/30 01:22:52;;;;;;;13.07;4.47;;;;;;;;;;5024021;28;20083;-79
2021/04/30 01:25:22;;;;;;;16.58;6.47;;;;;;;;;;5005619;28;20029;-80
2021/04/30 01:27:49;;;;;;;19.27;6.30;;;;;;;;;;5011903;28;20029;-79
2021/04/30 01:30:29;;;;;;;14.32;6.05;;;;;;;;;;5007375;28;20037;-80
2021/04/30 01:32:57;;;;;;;15.45;5.28;;;;;;;;;;5009916;28;20033;-80
2021/04/30 01:35:25;;;;;;;17.27;6.03;;;;;;;;;;5009801;28;20042;-82
2021/04/30 01:37:52;;;;;;;17.92;6.22;;;;;;;;;;5002324;28;20138;-78
2021/04/30 01:40:20;;;;;;;13.85;5.60;;;;;;;;;;5003019;28;20120;-79
2021/04/30 01:43:05;;;;;;;14.80;5.95;;;;;;;;;;5003541;28;22087;-78
2021/04/30 01:45:34;;;;;;;16.00;6.50;;;;;;;;;;5005040;28;20025;-79
2021/04/30 01:48:02;;;;;;;16.35;6.15;;;;;;;;;;5008740;28;20128;-78
2021/04/30 01:50:29;;;;;;;16.27;6.40;;;;;;;;;;5013405;28;20195;-78
2021/04/30 01:52:56;;;;;;;14.80;5.85;;;;;;;;;;5009088;28;20030;-79
2021/04/30 01:55:26;;;;;;;18.40;6.50;;;;;;;;;;5006406;28;20045;-77
2021/04/30 01:57:52;;;;;;;14.50;5.80;;;;;;;;;;5011117;28;20112;-77
2021/04/30 02:00:19;;;;;;;;;;;;;;;;;;5008430;28;20630;-80
2021/04/30 02:02:47;;;;;;;27.15;12.25;;;;;;;;;;5017659;28;22460;-83
2021/04/30 02:05:14;;;;;;;27.40;16.15;;;;;;;;;;5015491;28;20052;-82
2021/04/30 02:07:41;;;;;;;32.95;16.25;;;;;;;;;;5019257;28;20465;-83
2021/04/30 02:10:12;;;;;;;25.42;15.02;;;;;;;;;;5008282;28;20034;-82
2021/04/30 02:12:39;;;;;;;19.30;10.38;;;;;;;;;;5020457;28;20037;-82
2021/04/30 02:15:06;;;;;;;19.23;8.30;;;;;;;;;;5011007;28;20060;-82
2021/04/30 02:17:33;;;;;;;21.08;8.52;;;;;;;;;;5026364;28;20088;-81
2021/04/30 02:20:00;;;;;;;21.15;7.25;;;;;;;;;;5008516;28;20025;-80
2021/04/30 02:22:27;;;;;;;20.85;6.72;;;;;;;;;;5008000;28;20037;-80
2021/04/30 02:24:55;;;;;;;18.10;6.63;;;;;;;;;;5012461;28;20040;-80
2021/04/30 02:27:22;;;;;;;19.05;6.70;;;;;;;;;;5011677;28;20036;-82
2021/04/30 02:29:48;;;;;;;18.17;6.70;;;;;;;;;;5009180;28;20079;-82
2021/04/30 02:32:15;;;;;;;;;;;;;;;;;;5030600;28;20032;-82
2021/04/30 02:34:41;;;;;;;21.40;6.97;;;;;;;;;;5009764;28;20340;-81
2021/04/30 02:37:08;;;;;;;;;;;;;;;;;;5031242;28;20053;-79
2021/04/30 02:39:36;;;;;;;21.70;6.05;;;;;;;;;;5025906;28;19909;-80
2021/04/30 02:42:03;;;;;;;19.67;6.07;;;;;;;;;;5028368;28;20021;-80
2021/04/30 02:44:29;;;;;;;19.38;5.32;;;;;;;;;;5006124;28;20484;-81
2021/04/30 02:46:55;;;;;;;;;;;;;;;;;;5017535;28;20184;-82
2021/04/30 02:49:39;;;;;;;19.33;5.80;;;;;;;;;;5014953;28;20500;-82
2021/04/30 02:52:26;;;;;;;17.63;4.95;;;;;;;;;;5027052;28;20065;-82
2021/04/30 02:54:54;;;;;;;22.10;5.38;;;;;;;;;;4985314;28;20044;-81
2021/04/30 02:57:22;;;;;;;17.52;4.93;;;;;;;;;;4971827;28;20052;-80
2021/04/30 02:59:48;;;;;;;18.25;5.65;;;;;;;;;;4960194;28;20076;-80
2021/04/30 03:02:16;;;;;;;19.00;5.05;;;;;;;;;;4968630;28;20124;-79
2021/04/30 03:04:43;;;;;;;21.10;5.22;;;;;;;;;;4956656;28;20034;-79
2021/04/30 03:07:09;;;;;;;17.10;4.63;;;;;;;;;;4985025;28;20022;-79
2021/04/30 03:09:37;;;;;;;;;;;;;;;;;;4968175;28;20781;-80
2021/04/30 03:12:05;;;;;;;18.80;4.60;;;;;;;;;;4967708;28;19979;-80
2021/04/30 03:14:42;;;;;;;16.58;4.60;;;;;;;;;;4978834;28;20040;-80
2021/04/30 03:17:09;;;;;;;19.60;5.15;;;;;;;;;;4945754;28;20073;-80
2021/04/30 03:19:35;;;;;;;20.33;5.00;;;;;;;;;;4979918;28;20036;-80
2021/04/30 03:22:02;;;;;;;;;;;;;;;;;;4987527;28;20072;-80
2021/04/30 03:24:29;;;;;;;19.30;5.40;;;;;;;;;;4967856;28;19935;-80
2021/04/30 03:26:56;;;;;;;18.20;4.85;;;;;;;;;;5024056;28;20037;-80
2021/04/30 03:29:28;;;;;;;17.90;5.18;;;;;;;;;;5011635;28;20488;-80
2021/04/30 03:31:55;;;;;;;16.33;5.43;;;;;;;;;;5027049;28;20044;-80
2021/04/30 03:34:21;;;;;;;23.80;5.90;;;;;;;;;;5028025;28;20040;-81
2021/04/30 03:36:47;;;;;;;;;;;;;;;;;;5029375;28;20025;-80
2021/04/30 03:39:13;;;;;;;16.90;4.95;;;;;;;;;;5030070;28;19989;-80
2021/04/30 03:41:40;;;;;;;;;;;;;;;;;;5014216;28;20120;-80
2021/04/30 03:44:07;;;;;;;19.23;4.95;;;;;;;;;;5025527;28;19952;-79
2021/04/30 03:46:33;;;;;;;20.90;5.22;;;;;;;;;;5030594;28;20484;-79
2021/04/30 03:49:00;;;;;;;;;;;;;;;;;;5030292;28;20116;-78
2021/04/30 03:51:28;;;;;;;18.40;5.60;;;;;;;;;;5029609;28;20056;-79
2021/04/30 03:53:55;;;;;;;23.55;6.22;;;;;;;;;;5012751;28;20017;-81
2021/04/30 03:56:22;;;;;;;21.15;5.72;;;;;;;;;;5031128;28;20021;-81
2021/04/30 03:58:49;;;;;;;23.13;5.82;;;;;;;;;;5012139;28;20033;-81
2021/04/30 04:01:16;;;;;;;19.25;5.68;;;;;;;;;;5030453;28;20116;-82
2021/04/30 04:03:43;;;;;;;28.02;8.93;;;;;;;;;;5011729;28;20029;-82
2021/04/30 04:06:10;;;;;;;30.60;12.02;;;;;;;;;;5015794;28;20465;-82
2021/04/30 04:08:37;;;;;;;22.58;9.00;;;;;;;;;;5013784;28;20028;-81
2021/04/30 04:11:05;;;;;;;20.67;6.72;;;;;;;;;;5021070;28;20025;-82
2021/04/30 04:13:32;;;;;;;22.33;6.25;;;;;;;;;;5030232;28;20025;-82
2021/04/30 04:16:02;;;;;;;22.50;6.43;;;;;;;;;;5034933;28;20025;-82
2021/04/30 04:18:28;;;;;;;24.08;6.90;;;;;;;;;;5014779;28;20837;-83
2021/04/30 04:20:55;;;;;;;;;;;;;;;;;;5036002;28;20069;-82
2021/04/30 04:23:21;;;;;;;22.67;5.43;;;;;;;;;;5033165;28;19923;-81
2021/04/30 04:25:47;;;;;;;;;;;;;;;;;;5013624;28;21186;-81
2021/04/30 04:28:14;;;;;;;20.92;5.50;;;;;;;;;;5015455;28;19913;-81
2021/04/30 04:30:40;;;;;;;16.13;4.50;;;;;;;;;;5028588;28;20037;-81
2021/04/30 04:33:07;;;;;;;19.20;5.53;;;;;;;;;;5015169;28;20040;-81
2021/04/30 04:35:34;;;;;;;23.48;6.30;;;;;;;;;;5032796;28;20032;-81
2021/04/30 04:38:00;;;;;;;17.75;5.05;;;;;;;;;;5013922;28;20040;-81
2021/04/30 04:40:27;;;;;;;21.08;5.40;;;;;;;;;;5010989;28;20045;-82
2021/04/30 04:42:53;;;;;;;17.63;5.22;;;;;;;;;;5032812;28;20079;-86
2021/04/30 04:45:22;;;;;;;23.13;4.72;;;;;;;;;;5015439;28;20032;-79
2021/04/30 04:47:51;;;;;;;17.58;5.05;;;;;;;;;;5023781;28;20467;-79
2021/04/30 04:50:18;;;;;;;22.70;5.90;;;;;;;;;;5008683;28;20033;-79
2021/04/30 04:52:44;;;;;;;18.90;5.63;;;;;;;;;;4981485;28;20255;-78
2021/04/30 04:55:11;;;;;;;;;;;;;;;;;;4984434;28;20038;-78
2021/04/30 04:57:38;;;;;;;24.95;6.47;;;;;;;;;;4985883;28;19913;-78
2021/04/30 05:00:08;;;;;;;19.88;5.32;;;;;;;;;;4988419;28;20045;-79
2021/04/30 05:02:34;;;;;;;21.60;5.35;;;;;;;;;;4981644;28;20220;-79
2021/04/30 05:05:00;;;;;;;;;;;;;;;;;;4971409;28;20034;-80
2021/04/30 05:07:28;;;;;;;21.17;6.10;;;;;;;;;;4982454;28;20876;-79
2021/04/30 05:09:55;;;;;;;21.80;5.18;;;;;;;;;;4986605;28;20095;-79
2021/04/30 05:12:22;;;;;;;20.50;5.32;;;;;;;;;;4984780;28;20045;-79
2021/04/30 05:14:48;;;;;;;23.98;5.68;;;;;;;;;;4979560;28;20465;-79
2021/04/30 05:17:14;;;;;;;;;;;;;;;;;;4986948;28;20034;-79
2021/04/30 05:19:41;;;;;;;35.30;6.47;;;;;;;;;;4982431;28;19914;-79
2021/04/30 05:22:11;;;;;;;22.13;5.38;;;;;;;;;;4988149;28;20038;-78
2021/04/30 05:24:37;;;;;;;21.13;4.93;;;;;;;;;;4982103;28;20046;-79
2021/04/30 05:27:05;;;;;;;22.73;5.45;;;;;;;;;;4988355;28;20036;-79
2021/04/30 05:29:33;;;;;;;18.60;5.25;;;;;;;;;;4990589;28;20041;-79
2021/04/30 05:31:59;;;;;;;24.17;6.05;;;;;;;;;;5028233;28;20045;-79
2021/04/30 05:34:28;;;;;;;28.63;7.30;;;;;;;;;;5011976;28;20087;-80
2021/04/30 05:36:55;;;;;;;29.02;10.70;;;;;;;;;;5025698;28;20048;-79
2021/04/30 05:39:21;;;;;;;24.20;10.85;;;;;;;;;;5030902;28;20032;-79
2021/04/30 05:41:47;;;;;;;;;;;;;;;;;;5027064;28;20025;-79
2021/04/30 05:44:14;;;;;;;30.85;17.17;;;;;;;;;;5028101;28;19913;-78
2021/04/30 05:46:40;;;;;;;27.00;15.10;;;;;;;;;;5022135;28;20028;-78
2021/04/30 05:49:06;;;;;;;;;;;;;;;;;;5010649;28;20651;-77
2021/04/30 05:51:33;;;;;;;24.27;11.30;;;;;;;;;;5020522;28;19923;-78
2021/04/30 05:54:00;;;;;;;25.92;12.20;;;;;;;;;;5028931;28;20028;-78
2021/04/30 05:56:27;;;;;;;27.23;12.98;;;;;;;;;;5008506;28;20112;-79
2021/04/30 05:58:54;;;;;;;29.63;13.05;;;;;;;;;;5006267;28;20040;-78
2021/04/30 06:01:22;;;;;;;29.30;11.85;;;;;;;;;;5008987;28;20036;-78
2021/04/30 06:03:49;;;;;;;31.50;12.30;;;;;;;;;;5023047;28;20472;-77
2021/04/30 06:06:15;;;;;;;31.25;13.98;;;;;;;;;;5008443;28;20087;-77
2021/04/30 06:08:42;;;;;;;28.85;11.57;;;;;;;;;;5003414;28;20076;-78
2021/04/30 06:11:09;;;;;;;26.63;10.77;;;;;;;;;;5024730;28;20018;-78
2021/04/30 06:13:35;;;;;;;24.27;8.60;;;;;;;;;;5006666;28;20824;-79
2021/04/30 06:16:02;;;;;;;22.10;7.60;;;;;;;;;;5011556;28;20028;-79
2021/04/30 06:18:28;;;;;;;18.67;6.40;;;;;;;;;;5022852;28;20028;-80
2021/04/30 06:20:54;;;;;;;;;;;;;;;;;;5026904;28;20128;-79
2021/04/30 06:23:22;;;;;;;19.25;5.72;;;;;;;;;;5025533;28;19927;-79
2021/04/30 06:25:48;;;;;;;21.02;6.15;;;;;;;;;;5005444;28;20214;-79
2021/04/30 06:28:14;;;;;;;;;;;;;;;;;;5012513;28;20025;-80
2021/04/30 06:30:40;;;;;;;22.13;7.20;;;;;;;;;;5011699;28;19913;-80
2021/04/30 06:33:07;;;;;;;;;;;;;;;;;;5044586;28;20024;-80
2021/04/30 06:35:33;;;;;;;23.83;6.10;;;;;;;;;;5023317;28;19921;-80
2021/04/30 06:37:59;;;;;;;29.27;6.93;;;;;;;;;;5021135;28;20025;-80
2021/04/30 06:40:26;;;;;;;;;;;;;;;;;;5019342;28;20095;-80
2021/04/30 06:42:52;;;;;;;22.23;6.90;;;;;;;;;;5008410;28;19917;-80
2021/04/30 06:45:18;;;;;;;;;;;;;;;;;;5021365;28;20564;-78
2021/04/30 06:47:44;;;;;;;20.88;6.25;;;;;;;;;;5018786;28;19924;-80
2021/04/30 06:50:10;;;;;;;23.23;6.60;;;;;;;;;;5002301;28;20939;-80
2021/04/30 06:52:38;;;;;;;19.63;5.57;;;;;;;;;;4999428;28;20071;-79
2021/04/30 06:55:05;;;;;;;25.83;6.18;;;;;;;;;;5018026;28;20501;-80
2021/04/30 06:57:32;;;;;;;18.83;5.80;;;;;;;;;;4996742;28;20029;-79
2021/04/30 06:59:58;;;;;;;19.90;6.22;;;;;;;;;;5003309;28;20029;-80
2021/04/30 07:02:26;;;;;;;22.30;5.50;;;;;;;;;;5005653;28;20084;-80
2021/04/30 07:04:57;;;;;;;21.80;6.43;;;;;;;;;;5003758;28;20033;-80
2021/04/30 07:07:23;;;;;;;41.53;18.70;;;;;;;;;;5006263;28;20064;-80
2021/04/30 07:09:50;;;;;;;24.13;8.18;;;;;;;;;;4999228;28;20393;-80
2021/04/30 07:12:19;;;;;;;21.58;6.93;;;;;;;;;;5002730;28;20033;-80
2021/04/30 07:14:45;;;;;;;21.50;6.03;;;;;;;;;;5002222;28;20038;-79
2021/04/30 07:17:12;;;;;;;19.40;5.40;;;;;;;;;;5019260;28;20119;-79
2021/04/30 07:19:38;;;;;;;18.80;6.13;;;;;;;;;;5019356;28;20033;-79
2021/04/30 07:22:09;;;;;;;;;;;;;;;;;;5022173;28;20032;-80
2021/04/30 07:24:36;;;;;;;18.48;5.22;;;;;;;;;;5005677;28;20041;-80
2021/04/30 07:27:04;;;;;;;16.42;4.85;;;;;;;;;;5013667;28;20025;-79
2021/04/30 07:29:31;;;;;;;16.08;4.57;;;;;;;;;;4999080;28;20037;-80
2021/04/30 07:31:58;;;;;;;;;;;;;;;;;;5003858;28;20050;-80
2021/04/30 07:34:25;;;;;;;;;;;;;;;;;;5010687;28;19916;-79
2021/04/30 07:36:52;;;;;;;13.48;3.92;;;;;;;;;;5005928;28;20473;-79
2021/04/30 07:39:18;;;;;;;17.20;4.03;;;;;;;;;;5008168;28;20057;-81
2021/04/30 07:41:46;;;;;;;15.18;3.97;;;;;;;;;;5005320;28;22930;-81
2021/04/30 07:44:12;;;;;;;20.52;4.53;;;;;;;;;;5009057;28;20044;-81
2021/04/30 07:46:38;;;;;;;;;;;;;;;;;;5011587;28;20124;-81
2021/04/30 07:49:06;;;;;;;15.82;4.10;;;;;;;;;;5008861;28;20406;-81
2021/04/30 07:51:33;;;;;;;20.65;4.40;;;;;;;;;;5007197;28;20017;-80
2021/04/30 07:53:59;;;;;;;16.98;4.47;;;;;;;;;;5009549;28;20288;-82
2021/04/30 07:56:27;;;;;;;15.63;4.70;;;;;;;;;;5007684;28;20033;-81
2021/04/30 07:58:54;;;;;;;15.65;4.55;;;;;;;;;;5027289;28;20136;-81
2021/04/30 08:01:20;;;;;;;19.90;4.28;;;;;;;;;;5009317;28;20040;-81
2021/04/30 08:03:47;;;;;;;18.58;4.20;;;;;;;;;;5002959;28;20626;-81
2021/04/30 08:06:13;;;;;;;16.98;4.30;;;;;;;;;;5012192;28;20103;-82
2021/04/30 08:08:40;;;;;;;17.42;4.70;;;;;;;;;;5007562;28;20025;-80
2021/04/30 08:11:07;;;;;;;20.85;5.43;;;;;;;;;;5006910;28;20044;-80
2021/04/30 08:13:35;;;;;;;16.70;4.80;;;;;;;;;;5006535;28;20393;-81
2021/04/30 08:16:04;;;;;;;20.77;5.30;;;;;;;;;;5008256;28;20102;-79
2021/04/30 08:18:31;;;;;;;22.23;5.65;;;;;;;;;;5006907;28;20071;-81
2021/04/30 08:20:57;;;;;;;17.55;5.05;;;;;;;;;;5011208;28;20124;-80
2021/04/30 08:23:23;;;;;;;17.58;4.45;;;;;;;;;;5009850;28;20037;-80
2021/04/30 08:25:50;;;;;;;20.08;4.55;;;;;;;;;;5003679;28;20508;-80
2021/04/30 08:28:16;;;;;;;15.82;4.35;;;;;;;;;;5020737;28;20031;-80
2021/04/30 08:30:42;;;;;;;16.90;4.63;;;;;;;;;;5015043;28;20140;-80
2021/04/30 08:33:08;;;;;;;13.27;3.63;;;;;;;;;;5025254;28;20036;-81
2021/04/30 08:35:34;;;;;;;16.92;4.20;;;;;;;;;;5025211;28;20083;-81
2021/04/30 08:41:31;;;;;;;18.73;4.28;;;;;;;;;;4932784;28;20067;-84
2021/04/30 08:43:58;;;;;;;16.75;3.85;;;;;;;;;;4920703;28;20617;-86
2021/04/30 08:46:25;;;;;;;14.60;3.47;;;;;;;;;;4935208;28;20075;-85
2021/04/30 08:48:53;;;;;;;13.93;3.00;;;;;;;;;;4932639;28;20088;-84
2021/04/30 08:51:19;;;;;;;15.90;3.47;;;;;;;;;;4928164;28;20023;-84
2021/04/30 08:53:45;;;;;;;14.38;3.28;;;;;;;;;;4934678;28;20124;-85
2021/04/30 08:56:16;;;;;;;14.48;3.20;;;;;;;;;;4922671;28;20098;-85
2021/04/30 08:58:42;;;;;;;16.08;3.67;;;;;;;;;;4927994;28;20125;-85
2021/04/30 09:01:09;;;;;;;16.15;3.15;;;;;;;;;;4900487;28;20050;-84
2021/04/30 09:03:36;;;;;;;15.90;3.60;;;;;;;;;;4925923;28;20148;-85
2021/04/30 09:06:03;;;;;;;21.02;3.80;;;;;;;;;;4929700;28;20110;-85
2021/04/30 09:08:30;;;;;;;18.25;3.58;;;;;;;;;;4916826;28;20028;-87
2021/04/30 09:10:57;;;;;;;19.58;5.70;;;;;;;;;;4928014;28;20082;-85
2021/04/30 09:13:24;;;;;;;14.30;4.65;;;;;;;;;;4927869;28;20046;-85
2021/04/30 09:16:07;;;;;;;17.88;5.20;;;;;;;;;;4928956;28;20074;-85
2021/04/30 09:18:33;;;;;;;18.17;3.92;;;;;;;;;;4976318;28;20094;-83
2021/04/30 09:21:08;;;;;;;14.82;4.45;;;;;;;;;;5029245;28;20053;-84
2021/04/30 09:23:48;;;;;;;17.27;4.32;;;;;;;;;;5023143;28;20036;-83
2021/04/30 09:26:33;;;;;;;13.63;3.00;;;;;;;;;;5018456;28;20426;-84
2021/04/30 09:29:08;;;;;;;13.85;3.30;;;;;;;;;;5013536;28;20033;-84
2021/04/30 09:31:34;;;;;;;16.08;3.80;;;;;;;;;;5028331;28;20041;-82
2021/04/30 09:34:35;;;;;;;18.40;4.15;;;;;;;;;;5016463;28;20036;-83
2021/04/30 09:37:11;;;;;;;;;;;;;;;;;;;;;
2021/04/30 09:42:32;;;;;;;14.23;3.75;;;;;;;;;;4939850;28;19929;-82
2021/04/30 09:45:01;;;;;;;18.25;4.18;;;;;;;;;;4932245;28;20411;-81
2021/04/30 09:47:28;;;;;;;13.30;3.15;;;;;;;;;;4935798;28;20063;-81
2021/04/30 09:49:56;;;;;;;15.63;3.55;;;;;;;;;;4941676;28;21810;-82
2021/04/30 09:52:23;;;;;;;26.02;8.65;;;;;;;;;;4926950;28;20113;-82
2021/04/30 09:54:50;;;;;;;22.77;8.88;;;;;;;;;;4933432;28;20190;-82
2021/04/30 09:57:23;;;;;;;18.50;7.25;;;;;;;;;;4945461;28;20039;-82
2021/04/30 10:00:00;;;;;;;20.77;7.65;;;;;;;;;;4927825;28;20042;-81
2021/04/30 10:02:26;;;;;;;;;;;;;;;;;;4940803;28;20992;-81
2021/04/30 10:04:54;;;;;;;15.25;4.55;;;;;;;;;;4927405;28;19921;-81
2021/04/30 10:07:32;;;;;;;14.13;3.13;;;;;;;;;;4930229;28;20105;-81
2021/04/30 10:10:04;;;;;;;18.30;4.85;;;;;;;;;;4947225;28;20071;-83
2021/04/30 10:12:33;;;;;;;14.80;3.13;;;;;;;;;;4964541;28;20045;-83
2021/04/30 10:14:59;;;;;;;12.63;2.83;;;;;;;;;;5014542;28;20059;-84
2021/04/30 10:17:26;;;;;;;11.80;3.10;;;;;;;;;;5010347;28;20041;-83
2021/04/30 10:19:53;;;;;;;11.23;3.35;;;;;;;;;;5032082;28;20031;-84
2021/04/30 10:22:22;;;;;;;15.02;3.47;;;;;;;;;;5016481;28;20124;-84
2021/04/30 10:24:51;;;;;;;13.18;2.72;;;;;;;;;;5024506;28;20120;-83
2021/04/30 10:27:19;;;;;;;15.18;3.70;;;;;;;;;;5028053;28;20547;-84
2021/04/30 10:30:08;;;;;;;13.02;3.08;;;;;;;;;;5032043;28;20032;-85
2021/04/30 10:32:38;;;;;;;15.48;3.70;;;;;;;;;;4982884;28;20137;-83
2021/04/30 10:35:07;;;;;;;14.00;4.50;;;;;;;;;;4985669;28;20038;-84
2021/04/30 10:37:34;;;;;;;13.65;4.18;;;;;;;;;;4983029;28;20041;-84
2021/04/30 10:40:01;;;;;;;13.15;3.40;;;;;;;;;;4984346;28;20041;-84
2021/04/30 10:42:49;;;;;;;14.63;3.28;;;;;;;;;;4984453;28;20041;-86
2021/04/30 10:45:17;;;;;;;13.60;3.83;;;;;;;;;;4967316;28;20465;-80
2021/04/30 10:48:03;;;;;;;15.95;4.40;;;;;;;;;;4976645;28;20026;-83
2021/04/30 10:50:29;;;;;;;14.93;3.80;;;;;;;;;;4964310;28;20124;-83
2021/04/30 10:53:15;;;;;;;11.88;3.25;;;;;;;;;;4964403;28;20022;-83
2021/04/30 10:55:44;;;;;;;13.25;3.15;;;;;;;;;;4978565;28;20076;-83
2021/04/30 10:58:30;;;;;;;13.57;3.65;;;;;;;;;;4969924;28;20076;-85
2021/04/30 11:00:56;;;;;;;13.38;3.95;;;;;;;;;;4988056;28;20120;-84
2021/04/30 11:03:29;;;;;;;14.27;3.38;;;;;;;;;;4982556;28;20046;-84
2021/04/30 11:06:00;;;;;;;14.13;3.10;;;;;;;;;;4983549;28;20033;-85
2021/04/30 11:08:45;;;;;;;11.57;3.10;;;;;;;;;;4992572;28;20389;-85
2021/04/30 11:11:11;;;;;;;13.18;2.90;;;;;;;;;;4999088;28;20053;-84
2021/04/30 11:13:38;;;;;;;11.45;2.92;;;;;;;;;;4987425;28;20033;-83
2021/04/30 11:16:05;;;;;;;16.50;3.70;;;;;;;;;;4992621;28;20029;-84
2021/04/30 11:18:51;;;;;;;12.77;3.25;;;;;;;;;;4982486;28;20132;-83
2021/04/30 11:21:18;;;;;;;11.52;3.13;;;;;;;;;;4984855;28;20045;-84
2021/04/30 11:23:55;;;;;;;11.60;3.80;;;;;;;;;;4985431;28;20125;-85
2021/04/30 11:26:30;;;;;;;12.00;3.20;;;;;;;;;;4991827;28;20018;-86
2021/04/30 11:28:56;;;;;;;12.15;3.22;;;;;;;;;;4987642;28;20022;-86
2021/04/30 11:31:29;;;;;;;9.63;2.55;;;;;;;;;;5000891;28;20060;-84
2021/04/30 11:34:20;;;;;;;10.77;2.60;;;;;;;;;;5025318;28;20214;-84
2021/04/30 11:36:55;;;;;;;9.13;2.60;;;;;;;;;;5007829;28;20401;-84
2021/04/30 11:39:33;;;;;;;11.75;2.83;;;;;;;;;;5012438;28;20052;-84
2021/04/30 11:42:06;;;;;;;11.27;3.10;;;;;;;;;;5011279;28;20061;-85
2021/04/30 11:44:38;;;;;;;9.85;2.53;;;;;;;;;;5007439;28;20513;-85
2021/04/30 11:47:06;;;;;;;12.02;3.35;;;;;;;;;;5025808;28;20267;-86
2021/04/30 11:49:33;;;;;;;12.52;2.92;;;;;;;;;;5009420;28;20026;-85
2021/04/30 11:52:00;;;;;;;11.63;2.67;;;;;;;;;;5007719;28;20026;-81
2021/04/30 11:54:29;;;;;;;9.45;2.40;;;;;;;;;;5006945;28;20071;-84
2021/04/30 11:56:57;;;;;;;9.45;2.30;;;;;;;;;;5010424;28;20033;-84
2021/04/30 11:59:23;;;;;;;8.13;1.80;;;;;;;;;;5008543;28;20041;-84
2021/04/30 12:01:58;;;;;;;7.30;1.77;;;;;;;;;;5006352;28;20033;-85
2021/04/30 12:04:39;;;;;;;10.10;2.15;;;;;;;;;;5011912;28;20080;-85
2021/04/30 12:07:05;;;;;;;10.82;2.35;;;;;;;;;;5010859;28;20045;-85
2021/04/30 12:09:31;;;;;;;9.18;2.40;;;;;;;;;;5020517;28;20083;-86
2021/04/30 12:12:17;;;;;;;8.52;2.25;;;;;;;;;;5013854;28;20219;-86
2021/04/30 12:15:03;;;;;;;10.77;2.40;;;;;;;;;;5012194;28;20017;-85
2021/04/30 12:17:31;;;;;;;7.95;1.90;;;;;;;;;;5012426;28;20022;-84
2021/04/30 12:20:01;;;;;;;9.32;2.10;;;;;;;;;;5025658;28;20081;-86
2021/04/30 12:22:28;;;;;;;8.52;2.00;;;;;;;;;;5030891;28;20097;-82
2021/04/30 12:25:14;;;;;;;8.40;1.92;;;;;;;;;;5043794;28;20064;-82
2021/04/30 12:27:41;;;;;;;8.68;2.00;;;;;;;;;;5019052;28;20029;-81
2021/04/30 12:30:08;;;;;;;7.85;1.85;;;;;;;;;;5019139;28;20041;-80
2021/04/30 12:32:35;;;;;;;7.72;1.90;;;;;;;;;;5014582;28;20476;-80
2021/04/30 12:35:01;;;;;;;11.77;2.00;;;;;;;;;;5018916;28;20033;-82
2021/04/30 12:37:28;;;;;;;8.13;1.80;;;;;;;;;;5014338;28;20102;-81
2021/04/30 12:39:54;;;;;;;8.27;1.90;;;;;;;;;;5026375;28;20051;-81
2021/04/30 12:42:22;;;;;;;7.47;1.90;;;;;;;;;;5034198;28;20183;-82
2021/04/30 12:44:59;;;;;;;8.93;2.08;;;;;;;;;;5007912;28;20557;-82
2021/04/30 12:47:30;;;;;;;13.18;2.50;;;;;;;;;;5008443;28;20289;-81
2021/04/30 12:49:58;;;;;;;8.20;1.85;;;;;;;;;;5029066;28;20017;-82
2021/04/30 12:52:28;;;;;;;10.85;3.30;;;;;;;;;;5009995;28;20496;-81
2021/04/30 12:54:54;;;;;;;9.40;2.28;;;;;;;;;;5029790;28;20029;-82
2021/04/30 12:57:21;;;;;;;9.65;2.10;;;;;;;;;;5011616;28;20067;-82
2021/04/30 13:00:01;;;;;;;7.72;1.52;;;;;;;;;;5022654;28;20054;-81
2021/04/30 13:02:32;;;;;;;8.50;1.98;;;;;;;;;;5007165;28;20075;-81
2021/04/30 13:05:00;;;;;;;7.53;1.70;;;;;;;;;;5027656;28;20626;-81
2021/04/30 13:07:27;;;;;;;7.57;1.95;;;;;;;;;;5021910;28;20040;-82
2021/04/30 13:09:54;;;;;;;8.02;1.38;;;;;;;;;;5027984;28;20214;-82
2021/04/30 13:12:20;;;;;;;10.55;1.95;;;;;;;;;;5012474;28;20035;-80
2021/04/30 13:14:56;;;;;;;7.93;2.00;;;;;;;;;;5021615;28;20028;-79
2021/04/30 13:17:29;;;;;;;8.10;1.65;;;;;;;;;;5025263;28;20025;-79
2021/04/30 13:20:14;;;;;;;8.60;2.05;;;;;;;;;;5030391;28;20021;-84
2021/04/30 13:22:41;;;;;;;9.07;1.97;;;;;;;;;;5006402;28;20041;-82
2021/04/30 13:25:08;;;;;;;7.35;1.80;;;;;;;;;;5009231;28;20440;-82
2021/04/30 13:27:49;;;;;;;9.15;2.42;;;;;;;;;;5024745;28;20017;-79
2021/04/30 13:30:15;;;;;;;8.65;1.70;;;;;;;;;;5028140;28;20076;-80
2021/04/30 13:32:41;;;;;;;11.85;2.20;;;;;;;;;;5004693;28;21319;-80
2021/04/30 13:35:08;;;;;;;9.90;2.20;;;;;;;;;;5025905;28;20025;-80
2021/04/30 13:37:39;;;;;;;8.50;1.92;;;;;;;;;;5005275;28;20415;-81
2021/04/30 13:40:19;;;;;;;10.35;2.20;;;;;;;;;;5009074;28;20112;-80
2021/04/30 13:42:47;;;;;;;9.85;2.00;;;;;;;;;;5024730;28;20032;-80
2021/04/30 13:45:15;;;;;;;9.13;1.88;;;;;;;;;;5024300;28;20032;-81
2021/04/30 13:47:46;;;;;;;8.05;2.10;;;;;;;;;;5023854;28;20037;-80
2021/04/30 13:50:32;;;;;;;8.07;1.60;;;;;;;;;;5028840;28;20025;-79
2021/04/30 13:53:00;;;;;;;6.47;1.63;;;;;;;;;;5007237;28;20589;-80
2021/04/30 13:55:27;;;;;;;8.38;2.00;;;;;;;;;;5025113;28;20035;-80
2021/04/30 13:57:53;;;;;;;8.20;1.60;;;;;;;;;;5010596;28;20497;-80
2021/04/30 14:00:22;;;;;;;9.05;2.05;;;;;;;;;;5008173;28;20029;-80
2021/04/30 14:02:50;;;;;;;8.75;2.10;;;;;;;;;;5021266;28;20095;-79
2021/04/30 14:05:17;;;;;;;8.98;1.90;;;;;;;;;;5028073;28;20528;-80
2021/04/30 14:07:45;;;;;;;10.15;2.15;;;;;;;;;;5004967;28;20040;-80
2021/04/30 14:10:13;;;;;;;9.70;2.40;;;;;;;;;;5027298;28;20824;-81
2021/04/30 14:12:41;;;;;;;8.30;2.13;;;;;;;;;;5006965;28;20049;-82
2021/04/30 14:15:08;;;;;;;8.27;2.35;;;;;;;;;;5007937;28;20272;-80
2021/04/30 14:17:34;;;;;;;10.82;2.35;;;;;;;;;;5005749;28;20024;-83
2021/04/30 14:20:01;;;;;;;8.35;1.92;;;;;;;;;;5008522;28;20043;-85
2021/04/30 14:22:27;;;;;;;14.25;8.57;;;;;;;;;;5025403;28;20048;-83
2021/04/30 14:24:54;;;;;;;8.82;2.00;;;;;;;;;;5026327;28;20045;-83
2021/04/30 14:27:21;;;;;;;11.50;2.05;;;;;;;;;;5010285;28;20033;-83
2021/04/30 14:29:48;;;;;;;9.20;2.05;;;;;;;;;;5023694;28;21167;-83
2021/04/30 14:32:15;;;;;;;8.43;1.95;;;;;;;;;;5008496;28;20033;-80
2021/04/30 14:34:44;;;;;;;8.63;1.88;;;;;;;;;;5006409;28;20091;-79
2021/04/30 14:37:11;;;;;;;9.35;2.13;;;;;;;;;;5002556;28;20113;-79
2021/04/30 14:39:37;;;;;;;9.63;2.78;;;;;;;;;;5001266;28;20117;-81
2021/04/30 14:42:04;;;;;;;9.02;2.20;;;;;;;;;;5008072;28;20017;-81
2021/04/30 14:44:30;;;;;;;10.52;2.47;;;;;;;;;;4999912;28;20446;-79
2021/04/30 14:46:56;;;;;;;9.05;1.90;;;;;;;;;;5012290;28;20021;-82
2021/04/30 14:49:22;;;;;;;10.02;2.50;;;;;;;;;;5006471;28;20022;-81
2021/04/30 14:51:49;;;;;;;9.75;2.40;;;;;;;;;;5004828;28;20980;-80
2021/04/30 14:54:16;;;;;;;10.40;1.95;;;;;;;;;;5009744;28;20111;-80
2021/04/30 14:56:43;;;;;;;10.80;2.20;;;;;;;;;;5001960;28;20040;-80
2021/04/30 14:59:12;;;;;;;8.88;2.10;;;;;;;;;;5006555;28;20025;-81